Time;durP1;ratioP1;P1;durP2;ratioP2;P2;SDS_P1;SDS_P2;PMS_P1;PMS_P2;Temp;Humidity;BMP_temperature;BMP_pressure;BME280_temperature;BME280_humidity;BME280_pressure;Samples;Min_cycle;Max_cycle;Signal;HPM_P1;HPM_P2
2022/03/20 00:01:02;;;;;;;479.73;185.80;;;;;;;0.44;100.00;100761.13;6145059;23;20068;-60
2022/03/20 00:03:28;;;;;;;485.05;182.43;;;;;;;0.38;100.00;100759.94;6147731;23;20076;-61
2022/03/20 00:05:54;;;;;;;484.02;190.00;;;;;;;0.37;100.00;100770.81;6142829;23;20082;-60
2022/03/20 00:08:19;;;;;;;487.27;185.87;;;;;;;0.21;100.00;100750.56;6143239;23;20468;-59
2022/03/20 00:10:48;;;;;;;485.27;182.60;;;;;;;0.29;100.00;100772.03;6147243;23;20016;-60
2022/03/20 00:13:16;;;;;;;481.08;180.73;;;;;;;0.30;100.00;100772.09;6147847;23;20225;-60
2022/03/20 00:15:43;;;;;;;479.02;183.15;;;;;;;0.27;100.00;100766.03;6146916;23;20020;-61
2022/03/20 00:18:13;;;;;;;485.00;182.05;;;;;;;0.16;100.00;100749.44;6146906;23;20043;-63
2022/03/20 00:20:41;;;;;;;486.67;176.60;;;;;;;0.15;100.00;100755.25;6151545;23;20585;-60
2022/03/20 00:23:09;;;;;;;479.40;179.10;;;;;;;0.20;100.00;100763.94;6151655;23;20039;-61
2022/03/20 00:25:35;;;;;;;485.90;185.27;;;;;;;0.21;100.00;100775.78;6147955;23;20087;-61
2022/03/20 00:28:03;;;;;;;481.73;180.48;;;;;;;0.18;100.00;100770.53;6149354;23;20023;-60
2022/03/20 00:30:28;;;;;;;484.88;177.25;;;;;;;0.04;100.00;100756.31;6147196;23;20021;-59
2022/03/20 00:32:53;;;;;;;478.37;179.90;;;;;;;0.10;100.00;100774.28;6145278;23;20013;-61
2022/03/20 00:35:19;;;;;;;486.93;185.00;;;;;;;-0.01;100.00;100774.56;6142636;23;20018;-61
2022/03/20 00:37:44;;;;;;;476.67;172.40;;;;;;;-0.02;100.00;100771.94;6143628;23;20013;-60
2022/03/20 00:40:10;;;;;;;478.00;169.97;;;;;;;-0.04;100.00;100766.81;6147118;23;20006;-61
2022/03/20 00:42:35;;;;;;;473.60;170.47;;;;;;;-0.06;100.00;100765.88;6145150;23;20028;-61
2022/03/20 00:45:01;;;;;;;481.37;176.60;;;;;;;-0.20;100.00;100750.72;6142228;23;20437;-60
2022/03/20 00:47:26;;;;;;;478.23;172.37;;;;;;;-0.23;100.00;100750.53;6142496;23;20440;-60
2022/03/20 00:49:52;;;;;;;476.33;172.03;;;;;;;-0.20;100.00;100765.84;6146592;23;20014;-60
2022/03/20 00:52:17;;;;;;;480.57;173.03;;;;;;;-0.27;100.00;100757.06;6144421;23;20013;-61
2022/03/20 00:54:43;;;;;;;477.43;169.67;;;;;;;-0.28;100.00;100764.53;6142207;23;20024;-60
2022/03/20 00:57:08;;;;;;;471.80;163.17;;;;;;;-0.32;100.00;100758.44;6143773;23;20014;-59
2022/03/20 00:59:34;;;;;;;477.27;164.63;;;;;;;-0.40;100.00;100757.13;6146971;23;20020;-59
2022/03/20 01:01:59;;;;;;;476.43;169.63;;;;;;;-0.55;100.00;100738.59;6143766;23;20013;-60
2022/03/20 01:04:25;;;;;;;476.47;166.63;;;;;;;-0.59;100.00;100735.03;6141596;23;20029;-59
2022/03/20 01:06:51;;;;;;;470.67;159.35;;;;;;;-0.58;100.00;100740.94;6143998;23;20371;-60
2022/03/20 01:09:16;;;;;;;475.73;166.50;;;;;;;-0.64;100.00;100740.59;6147259;23;20085;-61
2022/03/20 01:11:42;;;;;;;475.67;169.67;;;;;;;-0.64;100.00;100746.50;6144004;23;20013;-59
2022/03/20 01:14:08;;;;;;;473.40;159.57;;;;;;;-0.68;100.00;100751.25;6141987;23;20105;-60
2022/03/20 01:16:34;;;;;;;472.85;165.07;;;;;;;-0.79;100.00;100725.44;6144978;23;20013;-60
2022/03/20 01:18:59;;;;;;;474.40;165.03;;;;;;;-0.72;100.00;100739.25;6141765;23;20061;-60
2022/03/20 01:21:25;;;;;;;475.63;169.07;;;;;;;-0.81;100.00;100723.59;6140617;23;20252;-59
2022/03/20 01:23:50;;;;;;;472.03;161.23;;;;;;;-0.84;100.00;100725.91;6139119;23;20433;-60
2022/03/20 01:26:16;;;;;;;474.33;155.10;;;;;;;-0.82;100.00;100744.53;6146350;23;20340;-60
2022/03/20 01:28:41;;;;;;;469.50;153.30;;;;;;;-0.85;100.00;100741.84;6145487;23;20010;-60
2022/03/20 01:31:10;;;;;;;466.57;155.40;;;;;;;-0.88;100.00;100747.53;6143128;23;20059;-61
2022/03/20 01:33:36;;;;;;;473.42;165.18;;;;;;;-0.91;100.00;100742.31;6140623;23;20010;-61
2022/03/20 01:36:01;;;;;;;469.90;152.77;;;;;;;-0.95;100.00;100740.41;6147149;23;20013;-59
2022/03/20 01:38:27;;;;;;;466.33;151.70;;;;;;;-0.96;100.00;100754.63;6146287;23;20102;-60
2022/03/20 01:40:53;;;;;;;466.47;157.03;;;;;;;-0.99;100.00;100741.88;6142121;23;20214;-60
2022/03/20 01:43:19;;;;;;;466.67;149.90;;;;;;;-0.78;100.00;100736.38;6141000;23;20252;-60
2022/03/20 01:45:45;;;;;;;466.33;149.60;;;;;;;-0.80;100.00;100740.44;6147233;23;20021;-60
2022/03/20 01:48:10;;;;;;;466.67;151.10;;;;;;;-0.84;100.00;100729.31;6145907;23;20068;-59
2022/03/20 01:50:36;;;;;;;465.43;157.77;;;;;;;-0.84;100.00;100736.00;6140292;23;20013;-60
2022/03/20 01:53:02;;;;;;;469.00;155.20;;;;;;;-0.87;100.00;100735.81;6142453;22;20063;-61
2022/03/20 01:55:28;;;;;;;468.10;153.18;;;;;;;-1.04;100.00;100717.19;6146394;23;20010;-59
2022/03/20 01:57:55;;;;;;;463.40;154.70;;;;;;;-1.02;100.00;100718.16;6145320;23;20176;-60
2022/03/20 02:00:24;;;;;;;467.33;161.15;;;;;;;-0.98;100.00;100717.56;6140025;23;20451;-59
2022/03/20 02:02:51;;;;;;;466.25;149.27;;;;;;;-0.94;100.00;100734.59;6142212;23;20077;-61
2022/03/20 02:05:16;;;;;;;462.90;145.23;;;;;;;-0.93;100.00;100733.78;6146792;23;20009;-61
2022/03/20 02:07:44;;;;;;;464.70;154.53;;;;;;;-0.99;100.00;100725.88;6145223;23;20005;-61
2022/03/20 02:10:10;;;;;;;461.70;152.02;;;;;;;-1.01;100.00;100729.94;6142165;23;20094;-61
2022/03/20 02:12:37;;;;;;;470.50;150.52;;;;;;;-0.93;100.00;100729.63;6142098;23;20431;-59
2022/03/20 02:15:04;;;;;;;468.25;149.23;;;;;;;-1.13;100.00;100691.47;6145553;23;20084;-59
2022/03/20 02:17:30;;;;;;;467.17;150.55;;;;;;;-1.07;100.00;100702.78;6144223;23;20013;-59
2022/03/20 02:19:57;;;;;;;465.63;151.27;;;;;;;-1.08;100.00;100700.16;6142514;23;20012;-61
2022/03/20 02:22:24;;;;;;;463.20;150.13;;;;;;;-1.03;100.00;100721.44;6145173;23;20062;-61
2022/03/20 02:24:51;;;;;;;464.08;146.65;;;;;;;-1.04;100.00;100714.66;6146534;23;20016;-61
2022/03/20 02:27:18;;;;;;;466.50;149.48;;;;;;;-1.05;100.00;100725.50;6143615;23;20009;-65
2022/03/20 02:29:50;;;;;;;463.77;150.05;;;;;;;-1.10;100.00;100729.38;6141469;23;20005;-61
2022/03/20 02:32:17;;;;;;;461.88;144.98;;;;;;;-1.18;100.00;100723.91;6145378;23;20009;-61
2022/03/20 02:34:48;;;;;;;466.33;152.10;;;;;;;-1.40;100.00;100688.16;6146555;23;20094;-59
2022/03/20 02:37:16;;;;;;;465.13;149.90;;;;;;;-1.26;100.00;100727.59;6143445;23;20599;-59
2022/03/20 02:39:43;;;;;;;463.48;151.98;;;;;;;-1.31;100.00;100721.41;6142314;23;20022;-60
2022/03/20 02:42:09;;;;;;;462.52;143.68;;;;;;;-1.31;100.00;100736.50;6148203;23;20022;-59
2022/03/20 02:44:50;;;;;;;459.37;146.87;;;;;;;-1.36;100.00;100735.38;6147464;23;20104;-59
2022/03/20 02:47:20;;;;;;;457.35;146.40;;;;;;;-1.33;100.00;100740.59;6141666;23;20572;-59
2022/03/20 02:49:49;;;;;;;458.38;147.02;;;;;;;-1.40;100.00;100726.75;6141640;23;20012;-59
2022/03/20 02:52:15;;;;;;;461.02;144.68;;;;;;;-1.34;100.00;100741.34;6146089;23;20010;-60
2022/03/20 02:54:40;;;;;;;459.30;145.27;;;;;;;-1.33;100.00;100743.09;6145050;22;20014;-59
2022/03/20 02:57:08;;;;;;;462.37;148.00;;;;;;;-1.39;100.00;100727.63;6140665;23;20090;-60
2022/03/20 02:59:34;;;;;;;455.73;145.75;;;;;;;-1.20;100.00;100738.03;6142816;23;20092;-61
2022/03/20 03:02:03;;;;;;;458.30;142.48;;;;;;;-1.35;100.00;100719.47;6145785;23;20009;-61
2022/03/20 03:04:28;;;;;;;459.75;147.68;;;;;;;-1.39;100.00;100713.41;6145329;23;20013;-61
2022/03/20 03:06:53;;;;;;;459.53;147.87;;;;;;;-1.47;100.00;100716.22;6141084;23;20156;-60
2022/03/20 03:12:04;;;;;;;456.88;141.32;;;;;;;-1.44;100.00;100741.53;6145003;23;20028;-61
2022/03/20 03:17:14;;;;;;;457.33;142.88;;;;;;;-1.47;100.00;100742.22;6140557;23;20047;-59
2022/03/20 03:19:39;;;;;;;454.77;137.70;;;;;;;-1.53;100.00;100741.00;6144844;23;20006;-62
2022/03/20 03:22:04;;;;;;;464.70;139.40;;;;;;;-1.59;100.00;100743.13;6145227;23;20169;-61
2022/03/20 03:24:30;;;;;;;457.17;144.30;;;;;;;-1.63;100.00;100746.22;6142258;23;20014;-61
2022/03/20 03:26:55;;;;;;;458.93;144.90;;;;;;;-1.67;100.00;100751.81;6141098;23;20017;-60
2022/03/20 03:29:20;;;;;;;465.73;143.70;;;;;;;-1.69;100.00;100756.75;6146508;23;20009;-62
2022/03/20 03:31:46;;;;;;;456.87;134.67;;;;;;;-1.71;100.00;100755.78;6146960;23;20016;-61
2022/03/20 03:36:55;;;;;;;453.27;132.32;;;;;;;-1.90;100.00;100735.28;6141811;23;20065;-60
2022/03/20 03:39:22;;;;;;;456.23;136.63;;;;;;;-1.82;100.00;100753.38;6146446;23;20005;-61
2022/03/20 03:41:50;;;;;;;457.50;141.10;;;;;;;-1.83;100.00;100761.69;6145549;23;20053;-61
2022/03/20 03:44:17;;;;;;;459.15;140.27;;;;;;;-2.00;100.00;100740.50;6141640;23;20009;-62
2022/03/20 03:46:42;;;;;;;454.20;133.60;;;;;;;-2.06;100.00;100740.97;6166745;23;20066;-61
2022/03/20 03:49:07;;;;;;;457.10;134.93;;;;;;;-2.01;100.00;100751.31;6146996;23;20037;-60
2022/03/20 03:51:33;;;;;;;455.87;138.67;;;;;;;-1.97;100.00;100763.31;6144950;23;20428;-60
2022/03/20 03:53:58;;;;;;;456.23;138.67;;;;;;;-1.96;100.00;100760.03;6142634;22;20024;-60
2022/03/20 03:56:24;;;;;;;456.73;138.37;;;;;;;-1.99;100.00;100758.16;6142963;23;20344;-60
2022/03/20 03:58:49;;;;;;;455.33;133.20;;;;;;;-2.01;100.00;100759.72;6147811;23;20080;-61
2022/03/20 04:01:14;;;;;;;459.30;140.37;;;;;;;-1.98;100.00;100757.41;6144736;23;20438;-60
2022/03/20 04:03:40;;;;;;;456.17;135.30;;;;;;;-2.08;100.00;100742.50;6141916;23;20013;-61
2022/03/20 04:06:07;;;;;;;450.43;133.57;;;;;;;-2.04;100.00;100758.66;6145186;23;20120;-60
2022/03/20 04:08:34;;;;;;;451.00;133.10;;;;;;;-2.08;100.00;100765.09;6150431;23;20594;-61
2022/03/20 04:11:00;;;;;;;456.65;140.68;;;;;;;-2.11;100.00;100769.94;6148708;23;20012;-60
2022/03/20 04:13:25;;;;;;;456.77;135.60;;;;;;;-2.06;100.00;100758.56;6144394;23;20009;-61
2022/03/20 04:15:52;;;;;;;450.33;130.37;;;;;;;-2.03;100.00;100758.75;6146091;23;20055;-60
2022/03/20 04:18:17;;;;;;;454.33;133.45;;;;;;;-2.16;100.00;100746.16;6147194;23;20005;-60
2022/03/20 04:20:44;;;;;;;453.53;134.00;;;;;;;-2.17;100.00;100751.97;6144852;23;20014;-60
2022/03/20 04:25:54;;;;;;;451.35;131.00;;;;;;;-2.16;100.00;100761.22;6146478;23;20505;-60
2022/03/20 04:28:20;;;;;;;448.03;126.97;;;;;;;-2.25;100.00;100748.09;6146622;23;20002;-60
2022/03/20 04:30:48;;;;;;;452.63;134.48;;;;;;;-2.21;100.00;100767.63;6143377;23;20229;-60
2022/03/20 04:33:13;;;;;;;453.95;135.23;;;;;;;-2.28;100.00;100765.44;6140191;23;20017;-60
2022/03/20 04:35:38;;;;;;;453.33;131.07;;;;;;;-2.55;100.00;100725.97;6146662;23;20009;-61
2022/03/20 04:38:06;;;;;;;451.97;127.13;;;;;;;-2.52;100.00;100734.59;6145797;23;20381;-61
2022/03/20 04:40:33;;;;;;;449.00;131.20;;;;;;;-2.55;100.00;100710.91;6142354;23;20034;-61
2022/03/20 04:42:59;;;;;;;454.42;134.02;;;;;;;-2.46;100.00;100740.00;6141020;23;20452;-61
2022/03/20 04:45:27;;;;;;;449.90;128.45;;;;;;;-2.40;100.00;100773.06;6147198;23;20006;-62
2022/03/20 04:58:48;;;;;;;460.00;138.93;;;;;;;-2.41;100.00;100782.97;6142696;23;20440;-61
2022/03/20 05:01:14;;;;;;;465.67;141.30;;;;;;;-2.44;100.00;100773.63;6141467;23;20409;-61
2022/03/20 05:03:39;;;;;;;458.10;136.57;;;;;;;-2.42;100.00;100784.63;6145737;23;20012;-59
2022/03/20 05:06:08;;;;;;;453.53;130.43;;;;;;;-2.44;100.00;100777.78;6145398;23;20006;-61
2022/03/20 05:08:37;;;;;;;462.55;137.15;;;;;;;-2.47;100.00;100778.44;6142462;23;20087;-60
2022/03/20 05:13:48;;;;;;;456.10;130.98;;;;;;;-2.50;100.00;100768.19;6146341;23;20022;-60
2022/03/20 05:16:13;;;;;;;453.90;130.03;;;;;;;-2.53;100.00;100770.50;6145993;23;20006;-59
2022/03/20 05:18:39;;;;;;;451.40;128.77;;;;;;;-2.43;100.00;100790.44;6141286;23;20504;-61
2022/03/20 05:21:04;;;;;;;449.13;126.73;;;;;;;-2.48;100.00;100776.69;6142275;23;20422;-60
2022/03/20 05:23:29;;;;;;;450.73;126.50;;;;;;;-2.37;100.00;100803.38;6147026;22;20006;-59
2022/03/20 05:25:55;;;;;;;452.37;134.73;;;;;;;-2.38;100.00;100805.81;6144360;23;20340;-59
2022/03/20 05:28:21;;;;;;;453.03;132.13;;;;;;;-2.30;100.00;100804.69;6140966;23;20021;-62
2022/03/20 05:30:46;;;;;;;451.65;129.57;;;;;;;-2.27;100.00;100801.50;6165691;23;20163;-60
2022/03/20 05:33:12;;;;;;;444.17;124.80;;;;;;;-2.26;100.00;100806.63;6146883;23;20431;-59
2022/03/20 05:35:39;;;;;;;453.30;130.30;;;;;;;-2.18;100.00;100799.59;6153120;23;20021;-60
2022/03/20 05:38:07;;;;;;;454.83;130.32;;;;;;;-2.07;100.00;100819.63;6144173;23;20017;-60
2022/03/20 05:40:33;;;;;;;450.42;127.80;;;;;;;-2.05;99.60;100808.03;6143001;23;20010;-60
2022/03/20 05:42:59;;;;;;;451.23;128.18;;;;;;;-2.06;99.27;100787.81;6146613;23;20037;-60
2022/03/20 05:45:24;;;;;;;452.40;133.67;;;;;;;-1.83;99.58;100822.00;6144814;23;20565;-60
2022/03/20 05:47:50;;;;;;;452.37;136.73;;;;;;;-1.74;98.18;100818.41;6138654;23;20126;-60
2022/03/20 05:50:15;;;;;;;454.10;134.27;;;;;;;-1.64;97.15;100817.38;6141377;23;20105;-60
2022/03/20 05:52:41;;;;;;;449.47;132.73;;;;;;;-1.54;95.08;100825.63;6143831;23;20067;-60
2022/03/20 05:55:07;;;;;;;452.45;136.25;;;;;;;-1.43;94.06;100816.22;6164517;22;20013;-61
2022/03/20 06:00:26;;;;;;;454.00;137.00;;;;;;;-1.26;89.65;100817.28;6143051;23;20190;-61
2022/03/20 06:02:52;;;;;;;452.95;135.32;;;;;;;-1.21;88.48;100801.72;6143253;23;20700;-60
2022/03/20 06:05:18;;;;;;;458.05;140.77;;;;;;;-1.02;87.69;100818.84;6139684;23;20797;-61
2022/03/20 06:07:46;;;;;;;455.47;144.17;;;;;;;-0.96;86.77;100812.53;6139506;23;20009;-60
2022/03/20 06:10:17;;;;;;;452.15;136.77;;;;;;;-0.78;86.10;100834.56;6143898;23;20336;-62
2022/03/20 06:12:43;;;;;;;452.85;139.10;;;;;;;-0.66;85.51;100835.31;6143551;23;20013;-59
2022/03/20 06:15:09;;;;;;;459.15;147.93;;;;;;;-0.60;83.85;100839.09;6139162;23;20020;-58
2022/03/20 06:17:39;;;;;;;457.75;144.23;;;;;;;-0.42;83.74;100846.00;6139801;23;20010;-59
2022/03/20 06:20:07;;;;;;;453.23;143.63;;;;;;;-0.28;82.07;100842.66;6142382;22;20014;-61
2022/03/20 06:22:33;;;;;;;460.10;151.23;;;;;;;-0.16;79.11;100844.25;6143584;23;20136;-58
2022/03/20 06:24:59;;;;;;;457.70;147.80;;;;;;;-0.05;75.76;100855.84;6138605;22;20025;-59
2022/03/20 06:27:24;;;;;;;456.67;145.23;;;;;;;0.14;73.76;100851.84;6140378;23;20006;-59
2022/03/20 06:29:50;;;;;;;456.13;147.70;;;;;;;0.28;72.69;100853.53;6143559;23;20118;-61
2022/03/20 06:32:15;;;;;;;459.13;153.90;;;;;;;0.39;71.59;100862.56;6143285;23;20089;-62
2022/03/20 06:34:42;;;;;;;463.93;159.30;;;;;;;0.46;68.60;100862.16;6140422;23;20048;-61
2022/03/20 06:37:08;;;;;;;458.00;151.35;;;;;;;0.55;67.37;100847.53;6142164;23;20005;-61
2022/03/20 06:39:33;;;;;;;463.13;156.43;;;;;;;0.77;65.37;100864.72;6143643;23;20659;-62
2022/03/20 06:42:00;;;;;;;462.27;161.87;;;;;;;0.91;64.15;100872.28;6141866;23;20021;-60
2022/03/20 06:44:25;;;;;;;466.38;168.13;;;;;;;0.96;62.43;100869.16;6139500;23;20036;-60
2022/03/20 06:46:51;;;;;;;459.57;162.17;;;;;;;1.11;61.27;100870.84;6141752;23;20484;-62
2022/03/20 06:49:17;;;;;;;462.17;162.33;;;;;;;1.24;60.21;100882.47;6145091;23;20009;-61
2022/03/20 06:51:42;;;;;;;464.73;170.57;;;;;;;1.43;60.46;100880.16;6143491;23;20060;-62
2022/03/20 06:54:08;;;;;;;466.57;166.20;;;;;;;1.48;59.35;100873.69;6139599;23;20029;-62
2022/03/20 06:56:33;;;;;;;462.87;163.27;;;;;;;1.64;59.25;100878.78;6167080;22;20051;-61
2022/03/20 06:58:58;;;;;;;463.33;169.13;;;;;;;1.96;57.92;100892.19;6143188;23;20013;-61
2022/03/20 07:01:24;;;;;;;466.90;174.70;;;;;;;2.14;56.53;100888.09;6143896;23;20306;-62
2022/03/20 07:03:49;;;;;;;468.50;176.47;;;;;;;2.20;55.26;100880.81;6141590;23;20014;-62
2022/03/20 07:06:15;;;;;;;469.93;176.90;;;;;;;2.52;52.70;100890.88;6142980;23;20044;-61
2022/03/20 07:08:40;;;;;;;469.43;182.67;;;;;;;2.55;52.90;100880.88;6143445;23;20014;-62
2022/03/20 07:11:06;;;;;;;474.03;192.00;;;;;;;2.70;51.98;100883.31;6141056;23;20009;-61
2022/03/20 07:13:49;;;;;;;476.40;197.83;;;;;;;2.67;50.81;100884.00;6138587;23;20407;-62
2022/03/20 07:16:15;;;;;;;471.20;191.75;;;;;;;2.85;50.75;100876.44;6146103;23;20025;-62
2022/03/20 07:18:48;;;;;;;474.05;200.15;;;;;;;3.06;50.33;100891.78;6145503;23;20001;-61
2022/03/20 07:21:14;;;;;;;476.40;208.73;;;;;;;3.30;48.20;100889.53;6141477;23;20010;-61
2022/03/20 07:23:40;;;;;;;477.90;210.70;;;;;;;3.32;47.80;100892.97;6140718;22;20017;-61
2022/03/20 07:31:34;;;;;;;483.70;225.50;;;;;;;3.69;46.17;100894.72;6140682;23;20090;-61
2022/03/20 07:33:59;;;;;;;479.37;221.70;;;;;;;3.63;46.37;100889.41;6141028;23;20013;-62
2022/03/20 07:36:24;;;;;;;479.73;221.63;;;;;;;3.58;46.48;100870.56;6145221;23;20037;-62
2022/03/20 07:38:50;;;;;;;485.33;235.53;;;;;;;3.60;46.81;100856.28;6143004;23;20060;-61
2022/03/20 07:41:16;;;;;;;482.63;227.97;;;;;;;3.80;45.63;100866.44;6139755;23;20490;-61
2022/03/20 07:43:42;;;;;;;484.05;231.32;;;;;;;3.99;46.65;100876.56;6142448;23;20021;-62
2022/03/20 07:46:08;;;;;;;480.63;229.80;;;;;;;4.14;45.72;100878.13;6143250;23;20066;-62
2022/03/20 07:48:34;;;;;;;489.27;249.68;;;;;;;4.29;45.32;100877.88;6141816;23;20021;-61
2022/03/20 07:51:00;;;;;;;485.40;242.00;;;;;;;4.36;44.49;100868.88;6139833;23;20125;-61
2022/03/20 07:53:26;;;;;;;482.53;237.70;;;;;;;4.42;44.15;100869.97;6143363;22;20237;-61
2022/03/20 07:55:52;;;;;;;482.20;242.83;;;;;;;4.44;43.93;100857.34;6143656;23;20013;-60
2022/03/20 07:58:19;;;;;;;487.33;251.77;;;;;;;4.43;44.77;100866.63;6142088;23;20240;-62
2022/03/20 08:00:44;;;;;;;490.90;261.00;;;;;;;4.55;45.04;100872.22;6137796;23;20022;-62
2022/03/20 08:03:10;;;;;;;483.37;246.10;;;;;;;4.41;45.45;100860.59;6141857;23;20731;-63
2022/03/20 08:05:35;;;;;;;487.17;257.93;;;;;;;4.67;45.19;100869.28;6145524;23;20055;-61
2022/03/20 08:08:02;;;;;;;501.17;258.00;;;;;;;4.75;45.04;100859.47;6139927;23;20673;-59
2022/03/20 08:10:28;;;;;;;491.30;261.33;;;;;;;4.70;45.46;100860.94;6140293;23;20086;-60
2022/03/20 08:12:53;;;;;;;486.57;257.70;;;;;;;4.94;44.42;100864.44;6146967;23;20994;-61
2022/03/20 08:15:19;;;;;;;488.23;263.90;;;;;;;4.87;44.76;100867.56;6145863;23;20254;-60
2022/03/20 08:17:46;;;;;;;490.23;273.33;;;;;;;4.98;43.84;100845.97;6139250;23;20344;-65
2022/03/20 08:20:13;;;;;;;492.87;281.27;;;;;;;5.20;43.88;100863.78;6138230;23;20018;-62
2022/03/20 08:22:39;;;;;;;494.00;279.33;;;;;;;5.18;45.98;100869.66;6143942;23;20235;-62
2022/03/20 08:25:06;;;;;;;496.23;286.50;;;;;;;5.13;46.45;100850.78;6144065;22;20249;-61
2022/03/20 08:27:41;;;;;;;495.00;292.27;;;;;;;5.42;44.51;100865.47;6138711;23;20028;-61
2022/03/20 08:30:11;;;;;;;;;;;;;;;5.39;45.80;100863.66;6140444;23;20671;-61
2022/03/20 08:32:37;;;;;;;493.17;277.97;;;;;;;5.51;45.20;100874.31;6142872;23;19904;-61
2022/03/20 08:35:03;;;;;;;496.60;292.40;;;;;;;5.64;44.26;100864.59;6143072;23;20600;-62
2022/03/20 08:37:28;;;;;;;498.30;301.50;;;;;;;5.57;45.37;100860.94;6139029;23;20016;-61
2022/03/20 08:39:54;;;;;;;499.27;300.80;;;;;;;5.63;45.05;100862.84;6140565;23;20114;-61
2022/03/20 08:42:19;;;;;;;498.27;306.07;;;;;;;5.81;44.35;100873.72;6143456;23;20820;-63
2022/03/20 08:44:45;;;;;;;501.23;314.47;;;;;;;6.06;43.96;100865.28;6142626;23;20018;-63
2022/03/20 08:47:10;;;;;;;502.60;320.73;;;;;;;6.05;43.64;100850.81;6139170;23;20006;-64
2022/03/20 08:49:35;;;;;;;503.67;318.17;;;;;;;6.26;43.73;100865.16;6142176;23;20017;-63
2022/03/20 08:52:01;;;;;;;504.73;328.30;;;;;;;6.42;43.46;100856.34;6144371;23;20036;-63
2022/03/20 08:54:26;;;;;;;509.00;341.07;;;;;;;6.13;44.43;100839.22;6147087;22;20723;-62
2022/03/20 08:56:52;;;;;;;505.50;331.93;;;;;;;6.31;43.53;100856.00;6145508;23;20332;-66
2022/03/20 08:59:17;;;;;;;505.30;333.40;;;;;;;6.40;43.13;100835.94;6147435;23;20016;-62
2022/03/20 09:01:42;;;;;;;504.37;334.73;;;;;;;6.59;42.52;100852.66;6151571;23;20014;-61
2022/03/20 09:04:10;;;;;;;508.90;348.27;;;;;;;6.69;42.50;100859.81;6146589;23;20013;-61
2022/03/20 09:06:37;;;;;;;509.23;343.20;;;;;;;6.68;42.09;100819.81;6144678;23;20005;-61
2022/03/20 09:09:03;;;;;;;508.37;342.20;;;;;;;6.90;41.86;100844.31;6144262;23;20225;-61
2022/03/20 09:11:28;;;;;;;510.13;346.50;;;;;;;7.02;42.53;100854.03;6144216;23;20236;-61
2022/03/20 09:13:53;;;;;;;511.97;358.23;;;;;;;7.01;42.60;100842.06;6140340;22;20282;-60
2022/03/20 09:19:04;;;;;;;509.80;355.10;;;;;;;6.94;41.79;100852.91;6141052;23;20079;-60
2022/03/20 09:21:36;;;;;;;508.43;352.80;;;;;;;6.91;42.25;100853.69;6143988;23;20248;-60
2022/03/20 09:24:03;;;;;;;508.37;358.03;;;;;;;6.97;42.13;100846.22;6139069;22;20399;-62
2022/03/20 09:26:29;;;;;;;513.23;362.00;;;;;;;7.07;42.71;100853.34;6139254;23;20237;-60
2022/03/20 09:28:55;;;;;;;515.53;375.30;;;;;;;7.25;41.66;100842.84;6143081;23;20229;-60
2022/03/20 09:31:20;;;;;;;510.93;364.97;;;;;;;7.42;41.94;100839.09;6143375;23;20009;-60
2022/03/20 09:33:46;;;;;;;515.83;380.30;;;;;;;7.61;40.67;100849.00;6138848;23;20322;-60
2022/03/20 09:36:12;;;;;;;512.53;377.37;;;;;;;7.98;40.31;100850.00;6139774;23;20021;-60
2022/03/20 09:38:38;;;;;;;518.83;401.47;;;;;;;8.02;40.66;100826.31;6142980;23;20010;-64
2022/03/20 09:41:08;;;;;;;521.93;409.77;;;;;;;8.12;39.66;100848.69;6137956;22;20018;-63
2022/03/20 09:43:39;;;;;;;522.13;412.50;;;;;;;8.12;39.34;100831.69;6138221;23;20257;-61
2022/03/20 09:46:04;;;;;;;517.27;412.83;;;;;;;8.06;39.34;100854.50;6140949;23;20236;-63
2022/03/20 09:48:30;;;;;;;519.60;416.73;;;;;;;8.32;39.82;100847.53;6138801;23;20221;-63
2022/03/20 09:51:00;;;;;;;520.03;413.50;;;;;;;8.34;39.97;100839.94;6140998;23;20006;-61
2022/03/20 09:53:27;;;;;;;522.23;413.80;;;;;;;8.44;40.03;100829.13;6143704;22;20013;-61
2022/03/20 09:55:57;;;;;;;522.63;426.50;;;;;;;8.60;38.58;100834.66;6143147;23;20655;-61
2022/03/20 09:58:28;;;;;;;521.97;432.60;;;;;;;8.69;38.68;100819.53;6138034;23;20648;-63
2022/03/20 10:00:54;;;;;;;523.17;435.53;;;;;;;8.98;38.88;100830.44;6141923;23;20303;-62
2022/03/20 10:03:22;;;;;;;529.90;441.90;;;;;;;9.17;38.23;100830.00;6144112;23;20525;-61
2022/03/20 10:06:16;;;;;;;526.83;456.83;;;;;;;9.17;37.45;100836.78;6141856;23;20214;-61
2022/03/20 10:08:56;;;;;;;528.47;456.17;;;;;;;9.24;37.99;100840.38;6139729;23;20287;-60
2022/03/20 10:11:23;;;;;;;529.03;452.03;;;;;;;9.22;38.17;100839.47;6144156;23;20261;-63
2022/03/20 10:14:19;;;;;;;529.93;463.00;;;;;;;9.40;38.03;100847.53;6144592;23;20329;-62
2022/03/20 10:16:48;;;;;;;529.45;464.30;;;;;;;9.51;37.90;100828.13;6130370;23;20249;-62
2022/03/20 10:19:22;;;;;;;528.60;467.63;;;;;;;9.57;37.60;100835.97;6141098;23;20361;-64
2022/03/20 10:21:56;;;;;;;535.63;476.77;;;;;;;9.50;37.20;100844.34;6144778;23;20249;-70
2022/03/20 10:24:24;;;;;;;556.23;496.40;;;;;;;9.78;36.57;100838.94;6143219;22;20260;-68
2022/03/20 10:27:13;;;;;;;552.57;492.83;;;;;;;9.92;36.79;100842.66;6140926;23;20340;-70
2022/03/20 10:29:55;;;;;;;556.63;497.23;;;;;;;10.27;36.28;100839.91;6141645;23;20364;-64
2022/03/20 10:32:22;;;;;;;568.93;509.13;;;;;;;10.46;35.81;100845.38;6143859;23;20227;-64
2022/03/20 10:34:58;;;;;;;587.40;527.13;;;;;;;10.36;35.98;100840.03;6139192;23;20229;-65
2022/03/20 10:37:52;;;;;;;597.80;537.40;;;;;;;10.51;36.24;100842.88;6139274;22;20233;-64
2022/03/20 10:40:26;;;;;;;593.90;533.63;;;;;;;10.21;35.92;100832.97;6143501;23;20313;-64
2022/03/20 10:43:09;;;;;;;586.88;526.38;;;;;;;9.98;36.14;100844.44;6143327;23;20253;-64
2022/03/20 10:45:52;;;;;;;605.03;544.63;;;;;;;10.05;35.85;100836.06;6138760;23;20047;-64
2022/03/20 10:48:28;;;;;;;581.00;521.33;;;;;;;9.99;35.95;100815.44;6142303;23;20267;-64
2022/03/20 10:50:55;;;;;;;586.53;526.40;;;;;;;10.12;36.89;100822.50;6143315;23;20235;-60
2022/03/20 10:53:20;;;;;;;594.13;533.73;;;;;;;10.47;36.30;100824.03;6141299;23;20286;-60
2022/03/20 10:55:46;;;;;;;589.63;529.47;;;;;;;10.40;35.01;100803.34;6138523;23;20563;-64
2022/03/20 10:58:18;;;;;;;585.07;525.03;;;;;;;10.56;35.31;100825.00;6142828;23;20010;-64
2022/03/20 11:00:45;;;;;;;589.90;529.93;;;;;;;10.70;34.31;100818.38;6144477;23;20024;-62
2022/03/20 11:03:15;;;;;;;592.47;532.30;;;;;;;10.94;34.12;100798.25;6140664;23;20233;-62
2022/03/20 11:05:41;;;;;;;613.93;552.97;;;;;;;10.87;34.60;100792.13;6139586;23;20228;-64
2022/03/20 11:08:06;;;;;;;615.87;555.37;;;;;;;11.34;34.40;100805.63;6146496;23;20225;-63
2022/03/20 11:10:33;;;;;;;627.57;566.63;;;;;;;11.25;34.04;100794.34;6145156;23;20017;-62
2022/03/20 11:13:00;;;;;;;635.73;574.67;;;;;;;11.34;33.65;100803.06;6139762;23;20020;-71
2022/03/20 11:15:29;;;;;;;646.57;585.10;;;;;;;11.31;33.45;100794.44;6139705;22;20268;-66
2022/03/20 11:17:56;;;;;;;641.10;579.87;;;;;;;11.04;33.51;100794.94;6141922;23;20287;-66
2022/03/20 11:20:23;;;;;;;646.17;584.73;;;;;;;10.70;33.68;100762.81;6143162;23;20229;-65
2022/03/20 11:22:54;;;;;;;651.07;589.00;;;;;;;11.06;33.91;100783.00;6138281;23;20283;-65
2022/03/20 11:25:24;;;;;;;636.03;575.00;;;;;;;10.97;33.86;100778.59;6139086;23;20246;-65
2022/03/20 11:27:59;;;;;;;637.83;575.43;;;;;;;11.05;33.27;100791.53;6143388;23;20564;-69
2022/03/20 11:30:30;;;;;;;638.00;577.08;;;;;;;11.04;32.64;100799.19;6142350;23;20236;-65